Time;durP1;ratioP1;P1;durP2;ratioP2;P2;SDS_P1;SDS_P2;PMS_P1;PMS_P2;Temp;Humidity;BMP_temperature;BMP_pressure;BME280_temperature;BME280_humidity;BME280_pressure;Samples;Min_cycle;Max_cycle;Signal;HPM_P1;HPM_P2
2022/02/03 00:00:54;;;;;;;41.95;17.83;;;8.90;90.80;;;;;;6153589;22;88809;-73
2022/02/03 00:03:36;;;;;;;44.22;17.70;;;8.90;90.80;;;;;;6130881;22;88935;-73
2022/02/03 00:06:11;;;;;;;37.75;18.13;;;8.90;90.90;;;;;;6130681;22;90929;-73
2022/02/03 00:09:44;;;;;;;42.83;18.40;;;9.00;90.90;;;;;;6130405;22;91547;-73
2022/02/03 00:25:41;;;;;;;50.88;22.90;;;9.10;91.20;;;;;;6130821;22;91609;-73
2022/02/03 00:28:17;;;;;;;60.80;22.63;;;9.10;91.30;;;;;;6130702;22;90873;-73
2022/02/03 00:49:12;;;;;;;57.40;22.27;;;9.20;91.50;;;;;;6130824;22;91271;-73
2022/02/03 00:51:44;;;;;;;64.38;25.25;;;9.20;91.60;;;;;;6157334;22;91654;-73
2022/02/03 00:54:11;;;;;;;62.47;25.08;;;9.20;91.60;;;;;;6130561;22;91995;-73
2022/02/03 00:57:00;;;;;;;63.75;25.77;;;9.20;91.50;;;;;;6130134;22;91661;-73
2022/02/03 00:59:30;;;;;;;68.15;25.70;;;9.20;91.50;;;;;;6105926;22;90870;-73
2022/02/03 01:01:59;;;;;;;67.60;24.38;;;9.30;91.50;;;;;;6129818;22;91225;-73
2022/02/03 01:04:29;;;;;;;53.28;23.88;;;9.30;91.60;;;;;;6130678;22;89580;-73
2022/02/03 01:06:58;;;;;;;55.28;23.73;;;9.30;91.50;;;;;;6157179;22;88896;-73
2022/02/03 01:09:30;;;;;;;68.38;24.92;;;9.30;91.50;;;;;;6105750;22;89650;-73
2022/02/03 01:17:56;;;;;;;57.85;22.85;;;9.40;91.60;;;;;;6130661;22;90562;-73
2022/02/03 01:45:06;;;;;;;42.05;16.77;;;9.60;92.10;;;;;;6156688;22;88846;-73
2022/02/03 01:52:42;;;;;;;38.17;16.98;;;9.80;92.30;;;;;;6130362;22;90835;-73
2022/02/03 01:55:16;;;;;;;41.88;16.20;;;9.70;92.20;;;;;;6130361;22;90042;-73
2022/02/03 01:57:52;;;;;;;;;;;9.80;92.30;;;;;;6131025;22;89694;-73
2022/02/03 02:00:21;;;;;;;39.67;16.95;;;9.70;92.30;;;;;;6132487;22;91561;-73
2022/02/03 02:03:14;;;;;;;42.13;16.15;;;9.80;92.30;;;;;;6156870;22;88391;-73
2022/02/03 02:06:17;;;;;;;47.00;16.33;;;9.80;92.30;;;;;;6156536;22;88786;-73
2022/02/03 02:08:57;;;;;;;32.72;14.85;;;9.90;92.20;;;;;;6157167;22;89427;-73
2022/02/03 02:11:50;;;;;;;36.92;17.20;;;9.90;92.30;;;;;;6156776;22;88454;-73
2022/02/03 02:36:54;;;;;;;49.78;21.27;;;9.90;92.10;;;;;;6129689;22;92135;-73
2022/02/03 02:37:33;;;;;;;58.10;24.50;;;10.10;92.00;;;;;;6135707;22;89150;-73
2022/02/03 02:43:01;;;;;;;53.60;24.05;;;10.10;92.00;;;;;;6127879;23;89430;-73
2022/02/03 02:45:50;;;;;;;51.33;22.98;;;10.10;92.00;;;;;;6126084;23;88741;-73
2022/02/03 02:48:26;;;;;;;59.22;23.48;;;10.10;92.00;;;;;;6126172;23;90991;-73
2022/02/03 02:51:06;;;;;;;52.35;23.02;;;10.10;92.00;;;;;;6126356;23;88701;-73
2022/02/03 02:56:38;;;;;;;51.58;21.95;;;10.20;92.10;;;;;;6126406;23;91570;-73
2022/02/03 03:30:03;;;;;;;52.60;23.15;;;10.20;92.00;;;;;;6127735;22;89538;-73
2022/02/03 03:38:03;;;;;;;44.78;23.88;;;10.20;92.00;;;;;;6126031;23;92108;-73
2022/02/03 03:40:32;;;;;;;54.20;24.83;;;10.20;92.00;;;;;;6139594;22;89015;-73
2022/02/03 03:43:05;;;;;;;48.03;23.40;;;10.20;92.00;;;;;;6157676;22;88395;-73
2022/02/03 03:45:35;;;;;;;52.67;25.77;;;10.20;92.00;;;;;;6130922;22;88497;-73
2022/02/03 03:48:07;;;;;;;47.15;25.05;;;10.20;91.90;;;;;;6157604;22;89402;-73
2022/02/03 03:50:39;;;;;;;46.88;26.40;;;10.20;91.80;;;;;;6156719;22;108337;-73
2022/02/03 03:53:19;;;;;;;49.15;25.20;;;10.30;91.80;;;;;;6130982;22;88496;-73
2022/02/03 03:56:06;;;;;;;51.88;26.10;;;10.30;91.70;;;;;;6131064;22;88726;-73
2022/02/03 04:34:03;;;;;;;51.35;26.20;;;10.30;91.60;;;;;;6136702;22;89373;-73
2022/02/03 05:02:56;;;;;;;50.33;28.38;;;10.30;91.40;;;;;;6157236;22;88830;-73
2022/02/03 05:08:44;;;;;;;49.30;27.13;;;10.30;91.30;;;;;;6157240;22;89449;-73
2022/02/03 05:11:34;;;;;;;48.63;27.75;;;10.30;91.30;;;;;;6157372;22;88799;-73
2022/02/03 05:17:42;;;;;;;43.80;26.35;;;10.30;91.20;;;;;;6157173;22;89850;-73
2022/02/03 05:45:19;;;;;;;61.53;33.28;;;10.30;91.20;;;;;;6127327;22;89417;-73
2022/02/03 06:02:38;;;;;;;66.40;32.45;;;10.30;91.10;;;;;;6129850;22;91000;-73
2022/02/03 06:29:11;;;;;;;64.37;32.83;;;10.40;90.90;;;;;;6158049;22;89415;-73
2022/02/03 06:31:40;;;;;;;59.30;32.00;;;10.40;90.90;;;;;;6106118;22;100871;-73
2022/02/03 06:34:07;;;;;;;68.22;35.15;;;10.30;90.90;;;;;;6158025;22;88516;-73
2022/02/03 06:36:36;;;;;;;58.65;32.25;;;10.40;90.90;;;;;;6157616;22;89845;-73
2022/02/03 06:39:18;;;;;;;66.47;34.85;;;10.40;90.80;;;;;;6131243;22;89322;-73
2022/02/03 06:41:52;;;;;;;73.10;35.30;;;10.40;90.90;;;;;;6130430;22;88816;-73
2022/02/03 06:44:24;;;;;;;76.32;37.33;;;10.40;90.80;;;;;;6131162;22;90919;-73
2022/02/03 06:46:53;;;;;;;64.38;33.20;;;10.40;90.90;;;;;;6157608;22;88353;-73
2022/02/03 06:49:50;;;;;;;76.50;37.33;;;10.40;91.00;;;;;;6157590;22;89248;-73
2022/02/03 06:52:26;;;;;;;68.35;35.00;;;10.30;90.90;;;;;;6157950;22;88830;-73
2022/02/03 06:55:08;;;;;;;64.22;35.58;;;10.30;90.90;;;;;;6157570;22;88798;-73
2022/02/03 07:00:29;;;;;;;65.10;34.05;;;10.40;90.90;;;;;;6125955;22;89438;-73
2022/02/03 07:02:58;;;;;;;63.85;34.65;;;10.40;90.80;;;;;;6107901;22;92694;-73
2022/02/03 07:05:25;;;;;;;60.33;33.33;;;10.30;90.70;;;;;;6130587;22;89538;-73
2022/02/03 07:07:54;;;;;;;64.15;34.47;;;10.30;90.70;;;;;;6130877;22;88780;-73
2022/02/03 07:10:22;;;;;;;60.88;34.08;;;10.30;91.00;;;;;;6131382;22;89437;-74
2022/02/03 07:12:49;;;;;;;60.63;34.97;;;10.40;90.60;;;;;;6130390;22;91945;-73
2022/02/03 07:15:16;;;;;;;58.88;32.83;;;10.40;90.60;;;;;;6157905;22;88522;-73
2022/02/03 07:17:43;;;;;;;56.60;31.70;;;10.40;90.50;;;;;;6105824;22;88765;-73
2022/02/03 07:20:13;;;;;;;55.72;32.65;;;10.40;90.30;;;;;;6130754;22;89217;-73
2022/02/03 07:22:42;;;;;;;53.45;30.75;;;10.30;90.30;;;;;;6128842;22;92313;-73
2022/02/03 07:25:10;;;;;;;60.25;32.50;;;10.40;90.20;;;;;;6131709;22;88524;-73
2022/02/03 07:27:37;;;;;;;55.55;31.88;;;10.40;90.10;;;;;;6106126;22;88925;-73
2022/02/03 07:30:06;;;;;;;53.60;30.80;;;10.40;90.10;;;;;;6157565;22;89109;-73
2022/02/03 07:32:33;;;;;;;51.15;32.08;;;10.40;90.00;;;;;;6131037;22;88797;-73
2022/02/03 07:35:00;;;;;;;47.33;29.92;;;10.40;89.90;;;;;;6130302;22;108011;-73
2022/02/03 07:37:28;;;;;;;52.08;29.73;;;10.40;90.00;;;;;;6157356;22;88565;-73
2022/02/03 07:39:56;;;;;;;48.25;31.75;;;10.40;89.80;;;;;;6157500;22;89250;-73
2022/02/03 07:42:27;;;;;;;49.00;29.52;;;10.40;89.60;;;;;;6157141;22;89024;-73
2022/02/03 07:44:54;;;;;;;45.53;27.02;;;10.30;89.40;;;;;;6105886;22;89896;-73
2022/02/03 07:47:22;;;;;;;45.65;27.52;;;10.40;89.80;;;;;;6131052;22;89556;-73
2022/02/03 07:49:49;;;;;;;46.03;27.33;;;10.40;89.50;;;;;;6130872;22;89338;-73
2022/02/03 07:52:16;;;;;;;47.70;27.90;;;10.40;89.20;;;;;;6157489;22;88912;-73
2022/02/03 07:54:43;;;;;;;45.60;25.45;;;10.40;89.10;;;;;;6105782;22;90926;-73
2022/02/03 07:57:10;;;;;;;43.05;24.80;;;10.40;89.00;;;;;;6157589;22;88835;-72
2022/02/03 07:59:37;;;;;;;40.75;25.77;;;10.40;89.10;;;;;;6157412;22;89367;-73
2022/02/03 08:02:04;;;;;;;44.45;27.38;;;10.40;89.20;;;;;;6157309;22;88855;-73
2022/02/03 08:04:33;;;;;;;44.10;25.92;;;10.40;89.20;;;;;;6106082;22;89890;-75
2022/02/03 08:07:01;;;;;;;36.47;23.67;;;10.40;89.10;;;;;;6156894;22;88780;-73
2022/02/03 08:10:07;;;;;;;44.13;23.80;;;10.40;89.20;;;;;;6157494;22;89176;-73
2022/02/03 08:12:27;;;;;;;40.20;24.20;;;10.40;89.00;;;;;;6154026;22;94004;-73
2022/02/03 08:14:55;;;;;;;40.53;20.88;;;10.40;89.10;;;;;;6132108;22;88403;-73
2022/02/03 08:17:29;;;;;;;34.38;20.77;;;10.40;89.00;;;;;;6130901;22;88670;-73
2022/02/03 08:20:00;;;;;;;35.50;21.23;;;10.40;89.20;;;;;;6132133;22;89486;-73
2022/02/03 08:22:34;;;;;;;29.63;20.35;;;10.40;89.10;;;;;;6157490;22;89011;-74
2022/02/03 08:25:17;;;;;;;34.55;21.17;;;10.40;89.20;;;;;;6130905;22;88684;-74
2022/02/03 08:32:59;;;;;;;34.35;19.35;;;10.40;89.20;;;;;;6157216;22;88932;-74
2022/02/03 08:35:39;;;;;;;29.67;18.88;;;10.40;89.00;;;;;;6157502;22;88351;-74
2022/02/03 08:43:14;;;;;;;32.33;18.52;;;10.40;89.20;;;;;;6130635;22;91518;-74
2022/02/03 08:45:43;;;;;;;32.78;18.98;;;10.50;88.90;;;;;;6157468;22;88394;-74
2022/02/03 08:48:11;;;;;;;29.23;18.05;;;10.40;88.90;;;;;;6156767;22;99425;-74
2022/02/03 08:50:41;;;;;;;27.77;16.23;;;10.40;88.50;;;;;;6106902;22;89469;-73
2022/02/03 08:53:34;;;;;;;22.88;13.52;;;10.50;88.40;;;;;;6130554;22;89155;-74
2022/02/03 09:59:39;;;;;;;23.65;14.88;;;10.60;85.70;;;;;;6153020;22;94761;-73
2022/02/03 10:02:12;;;;;;;22.48;15.18;;;10.60;85.80;;;;;;6127384;22;92469;-73
2022/02/03 10:04:55;;;;;;;22.90;14.98;;;10.60;86.10;;;;;;6154348;22;93059;-73
2022/02/03 10:07:35;;;;;;;18.70;13.43;;;10.60;86.30;;;;;;6154127;22;92298;-73
2022/02/03 10:10:08;;;;;;;22.17;14.40;;;10.50;86.50;;;;;;6127393;22;92467;-73
2022/02/03 10:12:40;;;;;;;20.40;14.30;;;10.50;86.40;;;;;;6154428;22;92397;-73
2022/02/03 10:15:10;;;;;;;24.20;15.13;;;10.50;86.60;;;;;;6153776;22;93166;-73
2022/02/03 10:17:40;;;;;;;22.15;15.40;;;10.50;86.70;;;;;;6128131;22;93004;-72
2022/02/03 10:20:11;;;;;;;21.90;14.63;;;10.40;86.90;;;;;;6154035;22;92747;-73
2022/02/03 10:22:52;;;;;;;22.17;14.98;;;10.50;87.10;;;;;;6154238;22;92360;-73
2022/02/03 10:25:28;;;;;;;19.05;14.02;;;10.50;87.20;;;;;;6127144;22;95675;-73
2022/02/03 10:28:04;;;;;;;19.45;14.02;;;10.40;86.90;;;;;;6126908;22;98082;-73
2022/02/03 10:30:37;;;;;;;21.17;14.80;;;10.40;87.00;;;;;;6154170;22;92400;-74
2022/02/03 10:33:04;;;;;;;21.08;14.20;;;10.40;87.10;;;;;;6127154;22;92392;-74
2022/02/03 10:35:59;;;;;;;22.70;14.32;;;10.40;86.80;;;;;;6154139;22;93224;-74
2022/02/03 11:05:40;;;;;;;20.67;13.15;;;10.60;85.90;;;;;;6155216;22;92373;-73
2022/02/03 11:08:26;;;;;;;20.42;13.40;;;10.60;85.80;;;;;;6128190;22;95694;-73
2022/02/03 11:10:58;;;;;;;20.65;13.63;;;10.70;85.80;;;;;;6108360;22;96100;-73
2022/02/03 11:13:33;;;;;;;18.33;13.50;;;10.70;85.10;;;;;;6128303;22;92342;-73
2022/02/03 11:16:05;;;;;;;20.83;13.90;;;10.70;85.00;;;;;;6105562;22;92339;-73
2022/02/03 11:18:33;;;;;;;20.38;13.27;;;10.80;85.20;;;;;;6153533;22;95627;-73
2022/02/03 11:21:00;;;;;;;17.30;13.45;;;10.70;84.80;;;;;;6128512;22;95381;-73
2022/02/03 11:23:37;;;;;;;20.00;13.73;;;10.70;85.00;;;;;;6127711;22;102775;-73
2022/02/03 11:26:17;;;;;;;16.65;13.23;;;10.80;84.70;;;;;;6105378;22;92459;-73
2022/02/03 11:29:14;;;;;;;20.30;13.27;;;10.70;84.70;;;;;;6105977;22;95664;-73
2022/02/03 11:37:07;;;;;;;19.08;13.65;;;10.80;84.70;;;;;;6129717;22;91658;-73
2022/02/03 12:03:12;;;;;;;18.13;12.82;;;10.90;83.90;;;;;;6128284;22;95604;-72
2022/02/03 12:06:21;;;;;;;16.13;12.05;;;11.00;84.10;;;;;;6154941;22;92294;-72
2022/02/03 12:17:14;;;;;;;16.90;12.60;;;11.00;84.90;;;;;;6155253;22;92779;-72
2022/02/03 12:19:51;;;;;;;17.92;11.30;;;11.00;84.80;;;;;;6154598;22;92277;-72
2022/02/03 12:25:56;;;;;;;15.60;11.98;;;10.90;84.70;;;;;;6094786;22;95524;-73
2022/02/03 12:39:04;;;;;;;14.90;10.70;;;10.80;84.40;;;;;;6153616;22;94669;-72
2022/02/03 12:41:37;;;;;;;17.73;12.55;;;10.90;84.60;;;;;;6127908;22;92487;-72
2022/02/03 12:44:24;;;;;;;15.73;10.75;;;10.80;84.60;;;;;;6153104;22;95669;-74
2022/02/03 12:46:54;;;;;;;19.17;16.08;;;10.80;84.40;;;;;;6154755;22;93077;-74
2022/02/03 12:49:21;;;;;;;13.40;10.85;;;10.80;84.60;;;;;;6128736;22;92391;-73
2022/02/03 12:51:52;;;;;;;15.98;11.60;;;10.80;84.30;;;;;;6154820;22;92374;-73
2022/02/03 12:54:19;;;;;;;11.55;9.27;;;10.80;84.20;;;;;;6128037;22;93425;-72
2022/02/03 12:56:46;;;;;;;11.30;9.82;;;10.80;84.10;;;;;;6155467;22;98877;-72
2022/02/03 12:59:16;;;;;;;11.00;9.15;;;10.80;84.10;;;;;;6155805;22;92452;-74
2022/02/03 13:01:45;;;;;;;10.93;8.48;;;10.80;83.90;;;;;;6155622;22;92369;-73
2022/02/03 13:04:15;;;;;;;10.38;8.68;;;10.80;83.90;;;;;;6126688;22;98074;-72
2022/02/03 13:07:00;;;;;;;9.65;8.65;;;10.70;84.10;;;;;;6154891;22;95361;-74
2022/02/03 13:09:35;;;;;;;9.20;8.27;;;10.70;84.30;;;;;;6128827;22;92316;-72
2022/02/03 13:12:17;;;;;;;10.63;8.40;;;10.70;84.40;;;;;;6128902;22;92380;-75
2022/02/03 13:15:04;;;;;;;9.10;7.30;;;10.70;84.50;;;;;;6155031;22;92341;-72
2022/02/03 13:17:36;;;;;;;10.60;8.43;;;10.60;84.70;;;;;;6154370;22;92958;-72
2022/02/03 13:20:08;;;;;;;10.70;8.70;;;10.60;85.50;;;;;;6128847;22;92410;-73
2022/02/03 13:22:47;;;;;;;8.95;7.82;;;10.60;85.60;;;;;;6155464;22;91666;-73
2022/02/03 13:27:55;;;;;;;11.63;9.60;;;10.50;85.60;;;;;;6154214;22;92339;-75
2022/02/03 13:30:49;;;;;;;10.20;8.55;;;10.60;85.60;;;;;;6153781;22;94818;-74
2022/02/03 13:33:28;;;;;;;8.95;8.05;;;10.60;85.50;;;;;;6155224;22;92699;-74
2022/02/03 13:36:04;;;;;;;10.45;9.07;;;10.60;85.60;;;;;;6155041;22;93119;-74
2022/02/03 13:41:18;;;;;;;11.52;9.70;;;10.50;85.50;;;;;;6130860;22;92918;-75
2022/02/03 13:43:46;;;;;;;11.80;8.70;;;10.50;86.00;;;;;;6155042;22;92401;-74
2022/02/03 13:46:43;;;;;;;12.30;9.68;;;10.50;86.20;;;;;;6155214;22;93153;-74
2022/02/03 13:49:19;;;;;;;11.73;9.38;;;10.70;86.30;;;;;;6128523;22;95406;-72
2022/02/03 13:51:56;;;;;;;11.82;9.68;;;10.70;86.00;;;;;;6154948;22;92346;-75
2022/02/03 14:23:23;;;;;;;10.85;9.13;;;10.70;86.10;;;;;;6079143;22;95826;-72
2022/02/03 14:28:33;;;;;;;10.80;9.30;;;10.60;85.90;;;;;;6154644;22;92373;-72
2022/02/03 14:31:05;;;;;;;11.38;9.50;;;10.50;86.20;;;;;;6156057;22;93244;-72
2022/02/03 14:33:35;;;;;;;10.50;8.70;;;10.50;86.40;;;;;;6130002;22;92836;-73
2022/02/03 14:36:07;;;;;;;9.05;7.70;;;10.50;86.20;;;;;;6156275;22;92348;-72
2022/02/03 14:41:24;;;;;;;9.80;8.80;;;10.50;86.30;;;;;;6121594;23;95606;-72
2022/02/03 14:43:52;;;;;;;9.27;7.70;;;10.50;86.00;;;;;;6099749;23;93319;-72
2022/02/03 14:46:27;;;;;;;8.55;7.65;;;10.50;86.20;;;;;;6126160;23;92318;-72
2022/02/03 14:48:55;;;;;;;7.88;6.95;;;10.50;86.10;;;;;;6125592;23;92379;-72
2022/02/03 14:51:30;;;;;;;8.45;7.55;;;10.50;86.10;;;;;;6124262;23;95719;-72
2022/02/03 14:58:01;;;;;;;8.63;7.38;;;10.50;86.00;;;;;;6098972;23;96616;-72
2022/02/03 14:59:30;;;;;;;9.73;7.50;;;10.40;86.20;;;;;;6099700;23;92423;-72
2022/02/03 15:01:57;;;;;;;10.70;9.60;;;10.30;86.80;;;;;;6125445;23;92303;-72
2022/02/03 15:04:28;;;;;;;9.60;7.35;;;10.30;87.00;;;;;;6126128;23;93040;-72
2022/02/03 15:07:02;;;;;;;8.77;7.25;;;10.40;87.00;;;;;;6099372;23;92429;-72
2022/02/03 15:12:23;;;;;;;9.32;7.45;;;10.30;86.70;;;;;;6077498;23;95706;-73
2022/02/03 15:14:50;;;;;;;9.15;7.53;;;10.30;86.80;;;;;;6125549;23;92318;-72
2022/02/03 15:17:20;;;;;;;9.68;7.32;;;10.30;86.90;;;;;;6124643;23;94713;-72
2022/02/03 15:19:49;;;;;;;9.02;7.65;;;10.40;86.80;;;;;;6125639;23;92366;-72
2022/02/03 15:22:16;;;;;;;9.30;7.45;;;10.30;86.90;;;;;;6125819;23;92811;-72
2022/02/03 15:24:43;;;;;;;11.38;8.45;;;10.30;87.00;;;;;;6125517;23;93054;-72
2022/02/03 15:27:11;;;;;;;11.52;9.20;;;10.30;87.30;;;;;;6099786;23;92502;-72
2022/02/03 15:29:38;;;;;;;10.00;8.52;;;10.30;87.20;;;;;;6100126;23;92590;-72
2022/02/03 15:32:06;;;;;;;11.25;9.00;;;10.30;87.20;;;;;;6098510;23;98799;-72
2022/02/03 15:34:36;;;;;;;11.30;9.20;;;10.30;87.40;;;;;;6125664;23;92885;-72
2022/02/03 15:37:11;;;;;;;12.35;10.27;;;10.20;87.40;;;;;;6099159;23;92401;-72
2022/02/03 15:39:45;;;;;;;11.40;9.05;;;10.20;87.40;;;;;;6125154;23;92354;-72
2022/02/03 15:42:13;;;;;;;11.43;9.93;;;10.20;87.50;;;;;;6117181;22;95517;-73
2022/02/03 15:44:43;;;;;;;15.32;10.57;;;10.20;87.40;;;;;;6129047;22;95341;-72
2022/02/03 15:47:21;;;;;;;16.00;10.20;;;10.10;87.20;;;;;;6155243;22;92429;-72
2022/02/03 15:50:25;;;;;;;13.00;9.77;;;10.10;87.60;;;;;;6154663;22;92384;-72
2022/02/03 16:17:26;;;;;;;15.75;10.68;;;9.90;87.20;;;;;;6155471;22;92974;-72
2022/02/03 16:54:36;;;;;;;15.25;11.65;;;9.70;87.80;;;;;;6155021;22;91663;-72
2022/02/03 16:57:11;;;;;;;16.95;12.15;;;9.60;87.90;;;;;;6127985;22;93576;-72
2022/02/03 16:59:47;;;;;;;15.82;11.43;;;9.70;87.80;;;;;;6154607;22;93088;-72
2022/02/03 17:02:15;;;;;;;13.52;10.32;;;9.60;87.70;;;;;;6128883;22;94788;-71
2022/02/03 17:04:46;;;;;;;15.18;11.27;;;9.60;87.80;;;;;;6128440;22;92763;-71
2022/02/03 17:07:13;;;;;;;16.38;11.02;;;9.60;87.60;;;;;;6127724;22;93065;-72
2022/02/03 17:09:40;;;;;;;14.95;11.50;;;9.50;87.60;;;;;;6127261;22;95617;-71
2022/02/03 17:12:08;;;;;;;14.75;10.93;;;9.50;88.20;;;;;;6127372;22;92362;-72
2022/02/03 17:14:35;;;;;;;16.30;12.05;;;9.50;88.20;;;;;;6154414;22;92899;-72
2022/02/03 17:17:02;;;;;;;18.35;12.45;;;9.50;88.20;;;;;;6126846;22;111863;-72
2022/02/03 17:19:29;;;;;;;18.20;11.88;;;9.50;88.20;;;;;;6154902;22;92855;-72
2022/02/03 17:21:56;;;;;;;15.98;12.23;;;9.50;88.30;;;;;;6154164;22;92330;-72
2022/02/03 17:24:23;;;;;;;16.73;12.80;;;9.50;88.20;;;;;;6127871;22;92445;-72
2022/02/03 17:29:32;;;;;;;15.25;11.23;;;9.50;88.50;;;;;;6127094;22;96445;-72
2022/02/03 18:30:04;;;;;;;22.02;13.85;;;9.50;89.30;;;;;;6155282;22;92347;-78
2022/02/03 18:35:18;;;;;;;21.00;15.02;;;9.50;89.10;;;;;;6155305;22;93002;-72
2022/02/03 19:24:15;;;;;;;25.33;15.85;;;9.40;89.30;;;;;;6155400;22;92717;-72
2022/02/03 20:01:56;;;;;;;26.55;16.35;;;9.40;89.30;;;;;;6128373;22;95697;-72
2022/02/03 20:04:38;;;;;;;33.47;16.25;;;9.50;89.40;;;;;;6128492;22;92428;-72
2022/02/03 20:07:19;;;;;;;29.10;17.05;;;9.50;89.20;;;;;;6154968;22;92384;-72
2022/02/03 20:12:16;;;;;;;29.38;18.02;;;9.50;89.20;;;;;;6154661;22;95454;-72
2022/02/03 20:14:43;;;;;;;31.02;18.58;;;9.50;89.10;;;;;;6127469;22;92580;-72
2022/02/03 20:17:11;;;;;;;29.38;18.60;;;9.50;89.20;;;;;;6128111;22;92442;-72
2022/02/03 20:19:38;;;;;;;31.60;18.67;;;9.50;89.30;;;;;;6128367;22;93105;-72
2022/02/03 20:22:05;;;;;;;31.35;19.83;;;9.60;89.10;;;;;;6127998;22;95697;-72
2022/02/03 20:24:32;;;;;;;33.65;19.08;;;9.60;89.10;;;;;;6128258;22;92451;-72
2022/02/03 20:26:59;;;;;;;32.60;18.40;;;9.60;88.90;;;;;;6128325;22;102529;-72
2022/02/03 20:29:26;;;;;;;32.55;19.25;;;9.60;88.90;;;;;;6128290;22;93145;-72
2022/02/03 20:31:53;;;;;;;34.95;20.63;;;9.60;88.90;;;;;;6154669;22;92888;-72
2022/02/03 20:34:21;;;;;;;35.33;20.17;;;9.60;89.00;;;;;;6101969;22;94812;-72
2022/02/03 20:36:48;;;;;;;32.42;20.83;;;9.60;89.20;;;;;;6155204;22;92877;-72
2022/02/03 20:39:15;;;;;;;34.38;20.20;;;9.60;89.20;;;;;;6103402;22;95713;-72
2022/02/03 20:41:42;;;;;;;33.53;19.80;;;9.70;89.10;;;;;;6102979;22;93319;-72
2022/02/03 20:44:09;;;;;;;36.67;20.30;;;9.70;88.90;;;;;;6127827;22;92454;-72
2022/02/03 20:46:37;;;;;;;29.98;19.42;;;9.70;89.00;;;;;;6154909;22;92576;-71
2022/02/03 20:49:08;;;;;;;33.03;19.48;;;9.70;89.00;;;;;;6129458;22;93276;-72
2022/02/03 20:51:35;;;;;;;36.72;20.20;;;9.70;89.10;;;;;;6154819;22;93035;-72
2022/02/03 20:54:02;;;;;;;37.53;20.17;;;9.70;88.90;;;;;;6127964;22;92409;-71
2022/02/03 20:56:29;;;;;;;30.05;19.77;;;9.70;88.90;;;;;;6154096;22;101150;-72
2022/02/03 20:59:00;;;;;;;37.53;20.52;;;9.70;88.90;;;;;;6126766;22;95621;-72
2022/02/03 21:01:32;;;;;;;33.55;20.85;;;9.70;89.10;;;;;;6127621;22;97967;-72
2022/02/03 21:04:06;;;;;;;36.30;20.17;;;9.70;88.90;;;;;;6128181;22;92417;-72
2022/02/03 21:06:33;;;;;;;35.90;21.08;;;9.70;88.30;;;;;;6127741;22;92670;-72
2022/02/03 21:09:00;;;;;;;34.42;19.50;;;9.70;88.70;;;;;;6154632;22;93254;-72
2022/02/03 21:11:27;;;;;;;35.38;20.80;;;9.70;88.50;;;;;;6127480;22;95556;-72
2022/02/03 21:13:54;;;;;;;31.13;20.02;;;9.70;88.50;;;;;;6154785;22;92368;-72
2022/02/03 21:16:21;;;;;;;32.17;19.13;;;9.70;88.50;;;;;;6103830;22;93495;-72
2022/02/03 21:18:50;;;;;;;33.92;20.08;;;9.70;88.50;;;;;;6128150;22;93153;-72
2022/02/03 21:21:17;;;;;;;29.52;19.50;;;9.70;88.70;;;;;;6154931;22;93064;-71
2022/02/03 21:23:44;;;;;;;36.53;20.23;;;9.70;88.40;;;;;;6102262;22;94847;-72
2022/02/03 21:26:19;;;;;;;32.53;18.73;;;9.70;88.50;;;;;;6154721;22;92435;-72
2022/02/03 21:28:48;;;;;;;30.17;20.88;;;9.70;88.50;;;;;;6127791;22;93290;-72
2022/02/03 21:31:15;;;;;;;32.63;19.60;;;9.80;88.60;;;;;;6154644;22;93048;-72
2022/02/03 21:33:48;;;;;;;33.97;20.23;;;9.70;88.30;;;;;;6127582;22;92535;-72
2022/02/03 21:36:17;;;;;;;37.73;21.53;;;9.70;88.40;;;;;;6128051;22;92450;-72
2022/02/03 21:38:44;;;;;;;32.10;19.88;;;9.70;88.50;;;;;;6153812;22;93201;-72
2022/02/03 21:41:13;;;;;;;31.52;19.65;;;9.60;88.50;;;;;;6154766;22;92869;-72
2022/02/03 21:43:41;;;;;;;32.67;20.58;;;9.70;88.60;;;;;;6127485;22;94370;-72
2022/02/03 21:46:09;;;;;;;31.58;20.23;;;9.70;88.40;;;;;;6128038;22;92419;-72
2022/02/03 21:48:40;;;;;;;32.58;21.67;;;9.70;88.60;;;;;;6152486;22;95608;-72
2022/02/03 21:51:08;;;;;;;34.65;21.00;;;9.70;88.50;;;;;;6127449;22;96933;-72
2022/02/03 21:53:36;;;;;;;29.30;18.15;;;9.70;88.50;;;;;;6127521;22;104624;-72
2022/02/03 21:56:03;;;;;;;38.45;22.02;;;9.60;88.40;;;;;;6154796;22;92805;-72
2022/02/03 21:58:30;;;;;;;30.88;20.65;;;9.70;88.60;;;;;;6128033;22;93204;-72
2022/02/03 22:00:59;;;;;;;30.17;20.27;;;9.70;88.40;;;;;;6154485;22;93005;-72
2022/02/03 22:03:28;;;;;;;34.15;21.70;;;9.70;88.40;;;;;;6154453;22;92360;-72
2022/02/03 22:05:57;;;;;;;34.97;20.45;;;9.70;88.20;;;;;;6154844;22;91657;-72
2022/02/03 22:08:26;;;;;;;29.65;21.23;;;9.70;88.90;;;;;;6127921;22;93094;-72
2022/02/03 22:10:59;;;;;;;33.40;22.15;;;9.60;88.40;;;;;;6128635;22;92738;-72
2022/02/03 22:13:34;;;;;;;32.00;21.05;;;9.60;88.60;;;;;;6126744;22;94764;-72
2022/02/03 22:16:08;;;;;;;30.38;20.30;;;9.70;88.40;;;;;;6129936;22;92361;-72
2022/02/03 22:18:36;;;;;;;31.92;22.55;;;9.60;88.30;;;;;;6153372;22;92812;-73
2022/02/03 22:42:37;;;;;;;33.00;20.73;;;9.60;88.10;;;;;;6153328;22;95475;-72
2022/02/03 22:50:17;;;;;;;36.80;22.17;;;9.60;88.10;;;;;;6154529;22;92464;-72
2022/02/03 22:52:45;;;;;;;32.83;21.05;;;9.60;88.00;;;;;;6127928;22;95706;-72
2022/02/03 22:55:13;;;;;;;35.25;21.17;;;9.50;88.20;;;;;;6128453;22;101545;-72
2022/02/03 22:57:45;;;;;;;29.73;19.23;;;9.60;88.10;;;;;;6155556;22;91733;-72
2022/02/03 23:00:19;;;;;;;32.55;20.58;;;9.60;87.70;;;;;;6128602;22;95908;-73
2022/02/03 23:02:46;;;;;;;;;;;9.50;88.10;;;;;;6155465;22;94532;-72
2022/02/03 23:05:13;;;;;;;30.13;18.75;;;9.40;87.70;;;;;;6129746;22;94741;-72
2022/02/03 23:15:41;;;;;;;33.28;20.70;;;9.50;88.20;;;;;;6128738;22;92449;-72
2022/02/03 23:23:39;;;;;;;34.38;21.15;;;9.50;88.40;;;;;;6128966;22;95505;-72
2022/02/03 23:26:07;;;;;;;34.85;22.33;;;9.50;88.40;;;;;;6104181;22;92952;-72
2022/02/03 23:28:35;;;;;;;34.25;21.90;;;9.50;88.10;;;;;;6128405;22;92485;-73
2022/02/03 23:31:03;;;;;;;36.10;21.95;;;9.40;88.10;;;;;;6153318;22;95705;-72
2022/02/03 23:33:31;;;;;;;33.17;21.65;;;9.50;88.00;;;;;;6155277;22;95474;-72
2022/02/03 23:35:59;;;;;;;33.72;22.88;;;9.40;87.70;;;;;;6103707;22;92396;-72
2022/02/03 23:52:08;;;;;;;34.08;21.58;;;9.20;87.90;;;;;;6154981;22;93173;-72
